Terminal Aerodrome Forecast
Issued by NWS Sterling, VA

Current Version | Previous Version | Graphics & Text | Print | Product List | Glossary On
Versions: 1 2 3 4 5 6 7 8 9 10 11 12 13 14 15 16 17 18 19 20 21 22 23 24 25 26 27 28
000
FTUS41 KLWX 090500
TAFIAD
TAF
KIAD 090532Z 0906/1012 VRB03KT 3SM BR SCT070
     FM091000 VRB03KT P6SM SCT070
     FM091400 25004KT P6SM BKN050
     FM092000 23007KT P6SM FEW050 SCT070
     FM100000 VRB03KT P6SM FEW050 SCT070=

USA.gov is the U.S. government's official web portal to all federal, state and local government web resources and services.